Verifier — MLWN4 — position and weather

sailwx.info

Track history (hours):
 
Tides and Currents Weather Stations Pressure Air Temp Water Temp Dewpoint Dewpoint Depression Visibility Wind Speed Wind Dir Waves Ship Positions

Verifier

Last reported at 2014-Aug-21 18:33 UTC. Time now 2014-Aug-22 23:36 UTC.
Position N 51°30' E 000°49'.

Length 21 m; draft 2 m.

Type: Port tender. MMSI: 235000932.

Date/timePositionNaut miles runAvg speedWind from/ knotsBaromVisibWave heightAir tempDewpointWater temp
2014-Aug-21 18:33N 51°30' E 000°49'1616.5
2014-Aug-21 17:33N 51°30' E 001°16'1 1.5
2014-Aug-21 16:34N 51°30' E 001°18'0 0.3
2014-Aug-21 15:33N 51°30' E 001°18'0 0.4
2014-Aug-21 14:33N 51°30' E 001°17'0 0.2
2014-Aug-21 13:33N 51°30' E 001°17'0 0.4
2014-Aug-21 12:33N 51°30' E 001°17'0 0.1
2014-Aug-21 11:33N 51°30' E 001°17'7 7.0
2014-Aug-21 10:33N 51°29' E 001°06'  
2014-Aug-18 16:28N 51°30' E 000°46'1617.0
2014-Aug-18 15:32N 51°33' E 001°11'1 0.6
2014-Aug-18 14:22N 51°33' E 001°10'1 1.3
2014-Aug-18 13:21N 51°33' E 001°08'0 0.1
2014-Aug-18 12:34N 51°33' E 001°08'0 0.2
2014-Aug-18 11:34N 51°33' E 001°08'2 1.5
2014-Aug-18 10:30N 51°32' E 001°06'2 2.2
2014-Aug-18 09:28N 51°31' E 001°03'  
Track history (hours):
 
Tides and Currents Weather Stations Pressure Air Temp Water Temp Dewpoint Dewpoint Depression Visibility Wind Speed Wind Dir Waves Ship Positions

Verifier

Last reported at 2014-Aug-21 18:33 UTC. Time now 2014-Aug-22 23:36 UTC.
Position N 51°30' E 000°49'.

Length 21 m; draft 2 m.

Type: Port tender. MMSI: 235000932.

Date/timePositionNaut miles runAvg speedWind from/ knotsBaromVisibWave heightAir tempDewpointWater temp
2014-Aug-21 18:33N 51°30' E 000°49'1616.5
2014-Aug-21 17:33N 51°30' E 001°16'1 1.5
2014-Aug-21 16:34N 51°30' E 001°18'0 0.3
2014-Aug-21 15:33N 51°30' E 001°18'0 0.4
2014-Aug-21 14:33N 51°30' E 001°17'0 0.2
2014-Aug-21 13:33N 51°30' E 001°17'0 0.4
2014-Aug-21 12:33N 51°30' E 001°17'0 0.1
2014-Aug-21 11:33N 51°30' E 001°17'7 7.0
2014-Aug-21 10:33N 51°29' E 001°06'  
2014-Aug-18 16:28N 51°30' E 000°46'1617.0
2014-Aug-18 15:32N 51°33' E 001°11'1 0.6
2014-Aug-18 14:22N 51°33' E 001°10'1 1.3
2014-Aug-18 13:21N 51°33' E 001°08'0 0.1
2014-Aug-18 12:34N 51°33' E 001°08'0 0.2
2014-Aug-18 11:34N 51°33' E 001°08'2 1.5
2014-Aug-18 10:30N 51°32' E 001°06'2 2.2
2014-Aug-18 09:28N 51°31' E 001°03'  

Dump ship's entire track history